createdAt,value
2022-08-10T00:00:55.764Z,100.00
2022-08-10T00:03:23.669Z,100.00
2022-08-10T00:05:54.753Z,100.00
2022-08-10T00:08:25.037Z,100.00
2022-08-10T00:10:54.971Z,100.00
2022-08-10T00:13:23.576Z,100.00
2022-08-10T00:15:54.862Z,100.00
2022-08-10T00:18:34.602Z,100.00
2022-08-10T00:21:04.902Z,100.00
2022-08-10T00:23:32.868Z,100.00
2022-08-10T00:26:02.743Z,100.00
2022-08-10T00:28:30.669Z,100.00
2022-08-10T00:30:58.578Z,100.00
2022-08-10T00:33:26.798Z,100.00
2022-08-10T00:35:54.640Z,100.00
2022-08-10T00:38:22.419Z,100.00
2022-08-10T00:40:50.206Z,100.00
2022-08-10T00:43:23.359Z,100.00
2022-08-10T00:45:59.330Z,100.00
2022-08-10T00:48:29.185Z,100.00
2022-08-10T00:50:57.365Z,100.00
2022-08-10T00:53:26.242Z,100.00
2022-08-10T00:56:34.905Z,100.00
2022-08-10T00:58:44.312Z,100.00
2022-08-10T01:02:08.913Z,100.00
2022-08-10T01:04:42.035Z,100.00
2022-08-10T01:07:14.749Z,100.00
2022-08-10T01:09:57.121Z,100.00
2022-08-10T01:12:40.884Z,100.00
2022-08-10T01:15:15.765Z,100.00
2022-08-10T01:17:53.633Z,100.00
2022-08-10T01:20:31.401Z,100.00
2022-08-10T01:23:38.583Z,100.00
2022-08-10T01:26:31.175Z,100.00
2022-08-10T01:29:17.845Z,100.00
2022-08-10T01:31:51.908Z,100.00
2022-08-10T01:34:23.771Z,100.00
2022-08-10T01:36:54.778Z,100.00
2022-08-10T01:39:27.516Z,100.00
2022-08-10T01:41:58.090Z,100.00
2022-08-10T01:44:30.642Z,100.00
2022-08-10T01:47:22.027Z,100.00
2022-08-10T01:49:51.756Z,100.00
2022-08-10T01:52:21.859Z,100.00
2022-08-10T01:54:52.923Z,100.00
2022-08-10T01:57:25.668Z,100.00
2022-08-10T01:59:58.669Z,100.00
2022-08-10T02:02:33.033Z,100.00
2022-08-10T02:05:03.352Z,100.00
2022-08-10T02:07:32.415Z,100.00
2022-08-10T02:10:03.663Z,100.00
2022-08-10T02:12:33.761Z,100.00
2022-08-10T02:15:05.089Z,100.00
2022-08-10T02:18:00.212Z,100.00
2022-08-10T02:20:31.569Z,100.00
2022-08-10T02:23:01.882Z,100.00
2022-08-10T02:25:41.574Z,100.00
2022-08-10T02:28:27.076Z,100.00
2022-08-10T02:31:00.143Z,100.00
2022-08-10T02:33:30.968Z,100.00
2022-08-10T02:36:01.627Z,100.00
2022-08-10T02:38:58.326Z,100.00
2022-08-10T02:42:18.118Z,100.00
2022-08-10T02:45:22.198Z,100.00
2022-08-10T02:47:19.630Z,100.00
2022-08-10T02:49:52.989Z,100.00
2022-08-10T02:52:26.036Z,100.00
2022-08-10T02:55:04.694Z,100.00
2022-08-10T02:58:13.877Z,100.00
2022-08-10T03:00:45.420Z,100.00
2022-08-10T03:03:18.206Z,100.00
2022-08-10T03:05:50.367Z,100.00
2022-08-10T03:08:22.278Z,100.00
2022-08-10T03:10:51.483Z,100.00
2022-08-10T03:13:20.293Z,100.00
2022-08-10T03:15:49.296Z,100.00
2022-08-10T03:18:19.294Z,100.00
2022-08-10T03:20:49.854Z,100.00
2022-08-10T03:23:20.114Z,100.00
2022-08-10T03:25:52.664Z,100.00
2022-08-10T03:28:23.103Z,100.00
2022-08-10T03:30:52.048Z,100.00
2022-08-10T03:33:22.097Z,100.00
2022-08-10T03:36:43.309Z,100.00
2022-08-10T03:38:40.454Z,100.00
2022-08-10T03:41:15.943Z,100.00
2022-08-10T03:43:47.743Z,100.00
2022-08-10T03:46:17.162Z,100.00
2022-08-10T03:48:49.601Z,100.00
2022-08-10T03:51:21.095Z,100.00
2022-08-10T03:54:04.368Z,100.00
2022-08-10T03:56:36.059Z,100.00
2022-08-10T03:59:04.896Z,100.00
2022-08-10T04:02:41.502Z,100.00
2022-08-10T04:04:24.501Z,100.00
2022-08-10T04:06:56.331Z,100.00
2022-08-10T04:09:43.280Z,100.00
2022-08-10T04:12:14.401Z,100.00
2022-08-10T04:14:49.564Z,100.00
2022-08-10T04:18:04.906Z,100.00
2022-08-10T04:20:11.644Z,100.00
2022-08-10T04:22:42.589Z,100.00
2022-08-10T04:25:13.521Z,100.00
2022-08-10T04:27:41.451Z,100.00
2022-08-10T04:30:10.923Z,100.00
2022-08-10T04:32:39.246Z,100.00
2022-08-10T04:35:11.210Z,100.00
2022-08-10T04:37:46.879Z,100.00
2022-08-10T04:40:29.966Z,100.00
2022-08-10T04:43:11.352Z,100.00
2022-08-10T04:45:48.264Z,100.00
2022-08-10T04:48:40.613Z,100.00
2022-08-10T04:51:07.873Z,100.00
2022-08-10T04:54:05.316Z,100.00
2022-08-10T04:56:31.520Z,100.00
2022-08-10T04:59:00.303Z,100.00
2022-08-10T05:02:21.153Z,100.00
2022-08-10T05:04:35.841Z,100.00
2022-08-10T05:07:03.740Z,100.00
2022-08-10T05:09:33.366Z,100.00
2022-08-10T05:12:21.262Z,100.00
2022-08-10T05:14:49.201Z,100.00
2022-08-10T05:17:16.961Z,100.00
2022-08-10T05:20:02.278Z,100.00
2022-08-10T05:22:32.614Z,100.00
2022-08-10T05:25:01.854Z,100.00
2022-08-10T05:27:29.602Z,100.00
2022-08-10T05:30:02.505Z,100.00
2022-08-10T05:32:31.310Z,100.00
2022-08-10T05:34:59.208Z,100.00
2022-08-10T05:38:09.385Z,100.00
2022-08-10T05:40:18.627Z,100.00
2022-08-10T05:42:46.390Z,100.00
2022-08-10T05:45:21.176Z,100.00
2022-08-10T05:48:41.852Z,100.00
2022-08-10T05:50:37.656Z,100.00
2022-08-10T05:53:59.051Z,100.00
2022-08-10T05:55:55.354Z,100.00
2022-08-10T05:58:23.490Z,100.00
2022-08-10T06:00:54.457Z,100.00
2022-08-10T06:03:28.711Z,100.00
2022-08-10T06:05:59.638Z,100.00
2022-08-10T06:08:31.978Z,100.00
2022-08-10T06:12:27.615Z,100.00
2022-08-10T06:14:15.782Z,100.00
2022-08-10T06:16:44.888Z,100.00
2022-08-10T06:19:15.088Z,100.00
2022-08-10T06:22:00.427Z,100.00
2022-08-10T06:24:30.922Z,100.00
2022-08-10T06:27:00.379Z,100.00
2022-08-10T06:29:31.854Z,100.00
2022-08-10T06:32:01.751Z,100.00
2022-08-10T06:34:33.084Z,100.00
2022-08-10T06:37:03.722Z,100.00
2022-08-10T06:39:34.982Z,100.00
2022-08-10T06:42:14.918Z,100.00
2022-08-10T06:44:52.415Z,100.00
2022-08-10T06:47:24.440Z,100.00
2022-08-10T06:49:59.544Z,100.00
2022-08-10T06:52:31.725Z,100.00
2022-08-10T06:55:01.549Z,100.00
2022-08-10T06:57:38.536Z,100.00
2022-08-10T07:00:08.131Z,100.00
2022-08-10T07:02:44.196Z,100.00
2022-08-10T07:05:18.176Z,100.00
2022-08-10T07:07:47.992Z,100.00
2022-08-10T07:10:20.071Z,100.00
2022-08-10T07:12:52.290Z,100.00
2022-08-10T07:15:21.337Z,100.00
2022-08-10T07:17:50.307Z,100.00
2022-08-10T07:20:19.747Z,100.00
2022-08-10T07:23:51.748Z,100.00
2022-08-10T07:25:40.545Z,100.00
2022-08-10T07:28:11.114Z,100.00
2022-08-10T07:30:40.604Z,100.00
2022-08-10T07:33:09.495Z,100.00
2022-08-10T07:35:42.246Z,100.00
2022-08-10T07:38:14.118Z,100.00
2022-08-10T07:40:43.396Z,100.00
2022-08-10T07:43:14.660Z,100.00
2022-08-10T07:45:42.449Z,100.00
2022-08-10T07:48:16.107Z,100.00
2022-08-10T07:50:44.548Z,100.00
2022-08-10T07:53:18.288Z,100.00
2022-08-10T07:56:07.331Z,100.00
2022-08-10T07:58:51.964Z,100.00
2022-08-10T08:01:24.401Z,100.00
2022-08-10T08:04:05.323Z,100.00
2022-08-10T08:06:41.466Z,100.00
2022-08-10T08:09:10.083Z,100.00
2022-08-10T08:11:40.380Z,100.00
2022-08-10T08:14:10.863Z,100.00
2022-08-10T08:16:42.587Z,100.00
2022-08-10T08:19:35.393Z,100.00
2022-08-10T08:24:14.599Z,100.00
2022-08-10T08:24:48.498Z,100.00
2022-08-10T08:27:21.402Z,100.00
2022-08-10T08:29:52.094Z,100.00
2022-08-10T08:32:23.343Z,100.00
2022-08-10T08:34:55.506Z,100.00
2022-08-10T08:38:29.908Z,100.00
2022-08-10T08:40:19.860Z,100.00
2022-08-10T08:43:25.505Z,100.00
2022-08-10T08:46:19.515Z,100.00
2022-08-10T08:49:03.275Z,100.00
2022-08-10T08:52:09.338Z,100.00
2022-08-10T08:54:46.557Z,100.00
2022-08-10T08:57:49.195Z,100.00
2022-08-10T09:00:19.392Z,97.79
2022-08-10T09:03:11.446Z,100.00
2022-08-10T09:05:58.433Z,100.00
2022-08-10T09:08:55.457Z,100.00
2022-08-10T09:11:39.492Z,100.00
2022-08-10T09:14:12.514Z,100.00
2022-08-10T09:16:48.584Z,100.00
2022-08-10T09:19:38.682Z,100.00
2022-08-10T09:22:18.418Z,100.00
2022-08-10T09:24:53.151Z,100.00
2022-08-10T09:27:23.839Z,100.00
2022-08-10T09:29:57.123Z,100.00
2022-08-10T09:36:13.677Z,98.77
2022-08-10T09:36:21.526Z,94.44
2022-08-10T09:38:34.803Z,96.35
2022-08-10T09:41:17.496Z,100.00
2022-08-10T09:43:56.065Z,100.00
2022-08-10T09:46:46.643Z,100.00
2022-08-10T09:49:52.764Z,100.00
2022-08-10T09:52:18.645Z,100.00
2022-08-10T09:55:07.700Z,100.00
2022-08-10T09:57:46.648Z,100.00
2022-08-10T10:00:17.453Z,100.00
2022-08-10T10:03:02.573Z,100.00
2022-08-10T10:05:51.204Z,100.00
2022-08-10T10:08:29.111Z,100.00
2022-08-10T10:11:09.279Z,100.00
2022-08-10T10:14:02.670Z,100.00
2022-08-10T10:16:43.014Z,100.00
2022-08-10T10:19:20.137Z,100.00
2022-08-10T10:21:56.726Z,100.00
2022-08-10T10:24:36.926Z,100.00
2022-08-10T10:27:19.512Z,100.00
2022-08-10T10:29:57.975Z,100.00
2022-08-10T10:32:37.626Z,100.00
2022-08-10T10:35:15.120Z,99.75
2022-08-10T10:38:02.539Z,100.00
2022-08-10T10:40:40.306Z,94.07
2022-08-10T10:43:22.880Z,100.00
2022-08-10T10:46:02.739Z,89.28
2022-08-10T10:48:41.288Z,94.78
2022-08-10T10:51:15.111Z,98.59
2022-08-10T10:53:50.676Z,90.48
2022-08-10T10:56:27.621Z,95.43
2022-08-10T10:59:53.879Z,88.54
2022-08-10T11:02:07.398Z,91.14
2022-08-10T11:04:41.499Z,82.50
2022-08-10T11:07:21.861Z,87.73
2022-08-10T11:10:07.884Z,100.00
2022-08-10T11:14:25.088Z,93.52
2022-08-10T11:16:07.551Z,79.14
2022-08-10T11:18:49.249Z,84.08
2022-08-10T11:21:29.472Z,78.67
2022-08-10T11:24:48.789Z,78.66
2022-08-10T11:26:57.152Z,76.38
2022-08-10T11:29:34.618Z,76.66
2022-08-10T11:32:07.943Z,66.36
2022-08-10T11:35:10.611Z,73.44
2022-08-10T11:38:34.594Z,77.68
2022-08-10T11:40:45.211Z,70.47
2022-08-10T11:43:21.113Z,67.96
2022-08-10T11:45:55.945Z,85.12
2022-08-10T11:48:53.723Z,74.86
2022-08-10T11:51:26.316Z,76.96
2022-08-10T11:54:01.499Z,75.99
2022-08-10T11:56:34.439Z,73.40
2022-08-10T11:59:19.719Z,74.03
2022-08-10T12:01:51.769Z,66.01
2022-08-10T12:04:22.401Z,71.06
2022-08-10T12:06:55.759Z,76.25
2022-08-10T12:10:11.508Z,76.70
2022-08-10T12:12:14.561Z,74.85
2022-08-10T12:14:47.438Z,70.90
2022-08-10T12:17:20.386Z,74.64
2022-08-10T12:19:59.080Z,65.27
2022-08-10T12:22:34.251Z,63.84
2022-08-10T12:25:05.595Z,68.58
2022-08-10T12:27:41.253Z,73.83
2022-08-10T12:30:11.849Z,65.75
2022-08-10T12:32:49.522Z,76.02
2022-08-10T12:35:26.766Z,65.44
2022-08-10T12:38:06.249Z,73.44
2022-08-10T12:40:41.870Z,65.26
2022-08-10T12:44:06.604Z,61.45
2022-08-10T12:46:20.816Z,76.37
2022-08-10T12:48:57.124Z,72.24
2022-08-10T12:51:30.305Z,60.16
2022-08-10T12:54:08.215Z,59.92
2022-08-10T12:56:40.110Z,70.70
2022-08-10T12:59:11.001Z,66.19
2022-08-10T13:02:06.454Z,57.87
2022-08-10T13:04:32.510Z,57.18
2022-08-10T13:07:01.973Z,65.42
2022-08-10T13:09:30.796Z,67.50
2022-08-10T13:12:36.795Z,69.91
2022-08-10T13:14:55.283Z,72.18
2022-08-10T13:17:38.939Z,73.35
2022-08-10T13:20:17.327Z,61.34
2022-08-10T13:22:48.533Z,64.88
2022-08-10T13:25:21.263Z,61.02
2022-08-10T13:28:01.331Z,66.51
2022-08-10T13:30:40.313Z,63.50
2022-08-10T13:33:10.466Z,57.64
2022-08-10T13:35:41.059Z,64.27
2022-08-10T13:38:11.294Z,56.76
2022-08-10T13:40:39.886Z,58.81
2022-08-10T13:43:09.997Z,61.57
2022-08-10T13:45:47.885Z,53.44
2022-08-10T13:48:21.337Z,61.92
2022-08-10T13:50:53.322Z,58.89
2022-08-10T13:53:22.933Z,59.08
2022-08-10T13:55:55.874Z,60.79
2022-08-10T13:58:27.432Z,60.58
2022-08-10T14:00:56.739Z,56.70
2022-08-10T14:03:26.338Z,57.72
2022-08-10T14:05:58.533Z,55.45
2022-08-10T14:08:30.270Z,58.16
2022-08-10T14:11:11.567Z,57.87
2022-08-10T14:13:44.415Z,52.32
2022-08-10T14:16:14.151Z,59.03
2022-08-10T14:18:44.929Z,61.13
2022-08-10T14:21:15.266Z,59.68
2022-08-10T14:23:51.869Z,58.61
2022-08-10T14:26:24.782Z,57.79
2022-08-10T14:28:59.227Z,54.37
2022-08-10T14:31:33.756Z,55.27
2022-08-10T14:34:04.511Z,57.41
2022-08-10T14:36:43.367Z,54.40
2022-08-10T14:39:17.040Z,61.05
2022-08-10T14:42:01.713Z,65.29
2022-08-10T14:44:45.318Z,64.45
2022-08-10T14:47:52.418Z,53.43
2022-08-10T14:50:05.096Z,56.92
2022-08-10T14:52:40.189Z,56.50
2022-08-10T14:55:19.710Z,53.56
2022-08-10T14:58:19.868Z,54.71
2022-08-10T15:00:43.161Z,56.23
2022-08-10T15:04:02.302Z,56.01
2022-08-10T15:06:16.988Z,55.30
2022-08-10T15:08:48.930Z,52.62
2022-08-10T15:12:13.859Z,55.96
2022-08-10T15:14:29.306Z,57.19
2022-08-10T15:16:59.435Z,56.59
2022-08-10T15:20:00.791Z,57.18
2022-08-10T15:22:36.521Z,57.99
2022-08-10T15:25:19.353Z,58.75
2022-08-10T15:27:56.233Z,55.46
2022-08-10T15:30:30.120Z,54.81
2022-08-10T15:33:21.279Z,48.76
2022-08-10T15:36:25.915Z,53.65
2022-08-10T15:39:00.390Z,47.61
2022-08-10T15:41:57.535Z,58.92
2022-08-10T15:44:37.732Z,55.85
2022-08-10T15:47:09.233Z,57.09
2022-08-10T15:49:45.396Z,51.57
2022-08-10T15:53:00.013Z,54.97
2022-08-10T15:55:44.247Z,55.21
2022-08-10T15:58:08.159Z,49.46
2022-08-10T16:00:40.870Z,52.63
2022-08-10T16:03:14.646Z,45.68
2022-08-10T16:06:00.332Z,54.39
2022-08-10T16:08:36.278Z,57.14
2022-08-10T16:11:38.153Z,51.24
2022-08-10T16:14:17.894Z,51.63
2022-08-10T16:16:51.172Z,53.13
2022-08-10T16:19:24.939Z,57.16
2022-08-10T16:22:34.253Z,58.97
2022-08-10T16:24:52.827Z,62.08
2022-08-10T16:27:23.607Z,55.61
2022-08-10T16:29:59.514Z,59.57
2022-08-10T16:32:30.116Z,58.31
2022-08-10T16:35:00.501Z,55.96
2022-08-10T16:37:57.255Z,59.61
2022-08-10T16:40:25.477Z,68.09
2022-08-10T16:42:55.137Z,64.95
2022-08-10T16:45:31.719Z,66.37
2022-08-10T16:48:00.396Z,63.59
2022-08-10T16:50:30.793Z,74.21
2022-08-10T16:53:02.172Z,78.03
2022-08-10T16:55:47.432Z,68.06
2022-08-10T16:58:18.987Z,72.17
2022-08-10T17:00:50.271Z,79.99
2022-08-10T17:03:22.393Z,83.04
2022-08-10T17:06:13.562Z,89.88
2022-08-10T17:08:47.882Z,90.36
2022-08-10T17:11:18.468Z,94.74
2022-08-10T17:13:46.663Z,93.69
2022-08-10T17:16:17.540Z,97.63
2022-08-10T17:18:47.955Z,97.58
2022-08-10T17:21:20.978Z,99.03
2022-08-10T17:23:52.650Z,98.05
2022-08-10T17:26:35.682Z,97.18
2022-08-10T17:29:09.183Z,100.00
2022-08-10T17:31:54.540Z,98.86
2022-08-10T17:34:29.270Z,100.00
2022-08-10T17:36:59.138Z,100.00
2022-08-10T17:39:32.232Z,100.00
2022-08-10T17:42:01.963Z,100.00
2022-08-10T17:44:35.610Z,100.00
2022-08-10T17:47:10.859Z,100.00
2022-08-10T17:49:41.178Z,100.00
2022-08-10T17:52:11.675Z,100.00
2022-08-10T17:54:44.338Z,100.00
2022-08-10T17:57:17.877Z,100.00
2022-08-10T18:01:58.238Z,100.00
2022-08-10T18:04:34.174Z,100.00
2022-08-10T18:07:10.923Z,100.00
2022-08-10T18:09:41.548Z,100.00
2022-08-10T18:12:18.092Z,100.00
2022-08-10T18:14:51.134Z,100.00
2022-08-10T18:17:22.737Z,100.00
2022-08-10T18:19:54.762Z,100.00
2022-08-10T18:22:25.220Z,100.00
2022-08-10T18:24:55.196Z,100.00
2022-08-10T18:28:01.139Z,100.00
2022-08-10T18:30:14.544Z,100.00
2022-08-10T18:32:49.017Z,100.00
2022-08-10T18:35:19.767Z,100.00
2022-08-10T18:37:53.587Z,100.00
2022-08-10T18:40:21.581Z,100.00
2022-08-10T18:43:09.933Z,100.00
2022-08-10T18:45:56.786Z,100.00
2022-08-10T18:48:45.275Z,100.00
2022-08-10T18:51:14.415Z,100.00
2022-08-10T18:53:48.209Z,100.00
2022-08-10T18:56:29.678Z,100.00
2022-08-10T18:59:09.592Z,100.00
2022-08-10T19:02:00.700Z,100.00
2022-08-10T19:04:44.960Z,100.00
2022-08-10T19:07:36.375Z,100.00
2022-08-10T19:10:15.244Z,100.00
2022-08-10T19:12:52.656Z,100.00
2022-08-10T19:15:27.410Z,100.00
2022-08-10T19:18:18.021Z,100.00
2022-08-10T19:20:54.217Z,100.00
2022-08-10T19:23:44.888Z,100.00
2022-08-10T19:26:41.772Z,100.00
2022-08-10T19:30:09.097Z,100.00
2022-08-10T19:32:26.396Z,100.00
2022-08-10T19:35:03.992Z,100.00
2022-08-10T19:37:41.343Z,100.00
2022-08-10T19:40:46.521Z,100.00
2022-08-10T19:43:30.837Z,100.00
2022-08-10T19:46:15.483Z,100.00
2022-08-10T19:48:48.837Z,100.00
2022-08-10T19:51:23.917Z,100.00
2022-08-10T19:54:04.411Z,100.00
2022-08-10T19:56:45.534Z,100.00
2022-08-10T20:00:15.877Z,100.00
2022-08-10T20:02:21.122Z,100.00
2022-08-10T20:05:02.731Z,100.00
2022-08-10T20:07:37.321Z,100.00
2022-08-10T20:10:14.013Z,100.00
2022-08-10T20:12:51.654Z,100.00
2022-08-10T20:15:30.493Z,100.00
2022-08-10T20:18:06.735Z,100.00
2022-08-10T20:20:49.098Z,100.00
2022-08-10T20:23:18.927Z,100.00
2022-08-10T20:25:56.241Z,100.00
2022-08-10T20:29:59.724Z,100.00
2022-08-10T20:32:34.502Z,100.00
2022-08-10T20:35:07.893Z,100.00
2022-08-10T20:38:02.833Z,100.00
2022-08-10T20:40:39.879Z,100.00
2022-08-10T20:43:17.416Z,100.00
2022-08-10T20:46:07.995Z,100.00
2022-08-10T20:48:41.492Z,100.00
2022-08-10T20:51:14.991Z,100.00
2022-08-10T20:53:47.926Z,100.00
2022-08-10T20:56:26.978Z,100.00
2022-08-10T20:59:15.880Z,100.00
2022-08-10T21:02:11.861Z,100.00
2022-08-10T21:04:52.560Z,100.00
2022-08-10T21:08:01.129Z,100.00
2022-08-10T21:10:42.114Z,100.00
2022-08-10T21:13:22.258Z,100.00
2022-08-10T21:16:01.636Z,100.00
2022-08-10T21:18:51.836Z,100.00
2022-08-10T21:24:32.237Z,100.00
2022-08-10T21:25:41.618Z,100.00
2022-08-10T21:27:13.353Z,100.00
2022-08-10T21:29:56.411Z,100.00
2022-08-10T21:32:40.086Z,100.00
2022-08-10T21:35:36.802Z,100.00
2022-08-10T21:38:11.348Z,100.00
2022-08-10T21:41:18.034Z,100.00
2022-08-10T21:44:05.669Z,100.00
2022-08-10T21:47:02.701Z,100.00
2022-08-10T21:50:04.024Z,100.00
2022-08-10T21:53:04.283Z,100.00
2022-08-10T21:56:09.657Z,100.00
2022-08-10T21:59:01.860Z,100.00
2022-08-10T22:01:53.502Z,100.00
2022-08-10T22:04:40.144Z,100.00
2022-08-10T22:07:33.508Z,100.00
2022-08-10T22:10:22.828Z,100.00
2022-08-10T22:13:13.387Z,100.00
2022-08-10T22:16:10.956Z,100.00
2022-08-10T22:19:02.988Z,100.00
2022-08-10T22:22:27.159Z,100.00
2022-08-10T22:25:29.588Z,100.00
2022-08-10T22:28:18.145Z,100.00
2022-08-10T22:34:29.158Z,100.00
2022-08-10T22:37:39.593Z,100.00
2022-08-10T22:40:32.136Z,100.00
2022-08-10T22:43:35.523Z,100.00
2022-08-10T22:46:25.343Z,100.00
2022-08-10T22:49:01.257Z,100.00
2022-08-10T22:51:39.236Z,100.00
2022-08-10T22:54:33.380Z,100.00
2022-08-10T22:57:21.898Z,100.00
2022-08-10T22:59:50.910Z,100.00
2022-08-10T23:02:29.949Z,100.00
2022-08-10T23:05:04.715Z,100.00
2022-08-10T23:07:35.435Z,100.00
2022-08-10T23:10:06.836Z,100.00
2022-08-10T23:12:40.403Z,100.00
2022-08-10T23:15:35.458Z,100.00
2022-08-10T23:18:25.316Z,100.00
2022-08-10T23:20:57.827Z,100.00
2022-08-10T23:23:28.740Z,100.00
2022-08-10T23:26:00.353Z,100.00
2022-08-10T23:28:38.885Z,100.00
2022-08-10T23:31:59.045Z,100.00
2022-08-10T23:34:14.420Z,100.00
2022-08-10T23:36:43.623Z,100.00
2022-08-10T23:39:26.440Z,100.00
2022-08-10T23:42:04.720Z,100.00
2022-08-10T23:44:48.448Z,100.00
2022-08-10T23:47:21.209Z,100.00
2022-08-10T23:49:51.283Z,100.00
2022-08-10T23:52:21.871Z,100.00
2022-08-10T23:54:55.568Z,100.00
2022-08-10T23:57:26.104Z,100.00
2022-08-10T23:59:59.050Z,100.00
